createdAt,value
2023-05-01T00:00:40.833Z,24.73
2023-05-01T00:05:40.150Z,24.39
2023-05-01T00:10:39.399Z,24.37
2023-05-01T00:15:38.652Z,24.69
2023-05-01T00:20:37.924Z,24.32
2023-05-01T00:25:37.201Z,23.85
2023-05-01T00:30:36.466Z,23.43
2023-05-01T00:35:35.761Z,23.22
2023-05-01T00:40:36.024Z,23.00
2023-05-01T00:45:34.325Z,22.85
2023-05-01T00:50:34.569Z,22.61
2023-05-01T00:55:32.826Z,22.46
2023-05-01T01:00:31.124Z,22.42
2023-05-01T01:05:32.430Z,22.39
2023-05-01T01:10:31.681Z,22.20
2023-05-01T01:15:30.956Z,22.10
2023-05-01T01:20:30.258Z,22.05
2023-05-01T01:25:28.503Z,21.86
2023-05-01T01:30:28.782Z,21.84
2023-05-01T01:35:27.051Z,21.77
2023-05-01T01:40:26.325Z,21.72
2023-05-01T01:45:26.577Z,21.53
2023-05-01T01:50:24.844Z,21.58
2023-05-01T01:55:26.096Z,21.50
2023-05-01T02:00:23.348Z,21.38
2023-05-01T02:05:23.584Z,21.29
2023-05-01T02:10:23.836Z,21.24
2023-05-01T02:15:21.098Z,21.19
2023-05-01T02:20:21.354Z,21.13
2023-05-01T02:25:20.608Z,21.04
2023-05-01T02:30:19.907Z,21.04
2023-05-01T02:35:19.204Z,21.03
2023-05-01T02:40:17.467Z,20.89
2023-05-01T02:45:16.764Z,20.92
2023-05-01T02:50:16.052Z,20.87
2023-05-01T02:55:16.509Z,20.88
2023-05-01T03:00:15.583Z,20.74
2023-05-01T03:05:14.848Z,20.73
2023-05-01T03:10:14.099Z,20.73
2023-05-01T03:15:13.402Z,20.76
2023-05-01T03:20:11.659Z,20.64
2023-05-01T03:25:10.923Z,20.66
2023-05-01T03:30:11.202Z,20.66
2023-05-01T03:35:09.550Z,20.61
2023-05-01T03:40:08.744Z,20.28
2023-05-01T03:45:10.109Z,20.95
2023-05-01T03:50:07.324Z,20.61
2023-05-01T03:55:07.592Z,20.72
2023-05-01T04:00:06.873Z,20.33
2023-05-01T04:05:05.159Z,20.23
2023-05-01T04:10:05.432Z,20.54
2023-05-01T04:15:03.673Z,20.33
2023-05-01T04:20:02.923Z,20.24
2023-05-01T04:25:03.201Z,20.17
2023-05-01T04:30:01.511Z,20.17
2023-05-01T04:35:01.785Z,20.17
2023-05-01T04:40:01.022Z,20.24
2023-05-01T04:44:59.273Z,20.50
2023-05-01T04:49:57.837Z,20.29
2023-05-01T04:54:57.977Z,20.31
2023-05-01T04:59:58.485Z,20.14
2023-05-01T05:04:58.206Z,20.36
2023-05-01T05:09:56.650Z,20.14
2023-05-01T05:14:53.698Z,19.94
2023-05-01T05:19:55.331Z,19.84
2023-05-01T05:24:53.247Z,19.92
2023-05-01T05:29:53.641Z,19.63
2023-05-01T05:34:51.821Z,19.86
2023-05-01T05:39:50.905Z,19.83
2023-05-01T05:44:52.268Z,19.83
2023-05-01T05:49:49.342Z,19.84
2023-05-01T05:54:49.627Z,19.48
2023-05-01T05:59:48.924Z,19.73
2023-05-01T06:04:47.235Z,19.74
2023-05-01T06:09:46.510Z,19.58
2023-05-01T06:14:45.789Z,19.73
2023-05-01T06:19:46.088Z,19.62
2023-05-01T06:24:45.391Z,19.43
2023-05-01T06:29:44.659Z,19.43
2023-05-01T06:34:42.948Z,19.39
2023-05-01T06:39:42.227Z,19.33
2023-05-01T06:44:41.520Z,19.58
2023-05-01T06:49:40.811Z,19.56
2023-05-01T06:54:40.116Z,19.21
2023-05-01T06:59:40.435Z,19.06
2023-05-01T07:04:39.727Z,19.47
2023-05-01T07:09:38.017Z,19.40
2023-05-01T07:14:37.383Z,19.65
2023-05-01T07:19:36.447Z,19.36
2023-05-01T07:24:35.718Z,19.44
2023-05-01T07:29:35.006Z,19.26
2023-05-01T07:34:34.265Z,19.48
2023-05-01T07:39:33.563Z,19.58
2023-05-01T07:44:32.840Z,19.39
2023-05-01T07:49:32.097Z,19.56
2023-05-01T07:54:31.328Z,19.61
2023-05-01T07:59:29.603Z,19.21
2023-05-01T08:04:29.912Z,19.61
2023-05-01T08:09:30.217Z,19.61
2023-05-01T08:14:28.518Z,19.21
2023-05-01T08:19:27.806Z,19.58
2023-05-01T08:24:27.080Z,19.40
2023-05-01T08:29:26.390Z,19.28
2023-05-01T08:34:25.678Z,19.68
2023-05-01T08:39:24.991Z,19.46
2023-05-01T08:44:24.266Z,19.44
2023-05-01T08:49:25.561Z,19.59
2023-05-01T08:54:22.839Z,19.43
2023-05-01T08:59:23.113Z,19.58
2023-05-01T09:04:21.446Z,19.73
2023-05-01T09:09:21.528Z,19.51
2023-05-01T09:14:19.763Z,19.41
2023-05-01T09:19:20.038Z,19.58
2023-05-01T09:24:20.316Z,19.50
2023-05-01T09:29:17.583Z,19.31
2023-05-01T09:34:17.846Z,20.70
2023-05-01T09:39:17.143Z,21.59
2023-05-01T09:44:15.426Z,22.03
2023-05-01T09:49:16.720Z,22.95
2023-05-01T09:54:14.030Z,23.38
2023-05-01T09:59:14.342Z,24.00
2023-05-01T10:04:13.670Z,23.95
2023-05-01T10:09:11.970Z,24.64
2023-05-01T10:14:12.293Z,24.71
2023-05-01T10:19:10.620Z,24.84
2023-05-01T10:24:09.900Z,25.54
2023-05-01T10:29:10.195Z,25.57
2023-05-01T10:34:08.462Z,24.93
2023-05-01T10:39:09.778Z,25.21
2023-05-01T10:44:07.027Z,25.36
2023-05-01T10:49:06.301Z,26.29
2023-05-01T10:54:05.597Z,26.62
2023-05-01T10:59:04.950Z,27.07
2023-05-01T11:04:06.005Z,26.89
2023-05-01T11:09:04.237Z,27.22
2023-05-01T11:14:02.499Z,27.41
2023-05-01T11:19:01.725Z,27.02
2023-05-01T11:24:00.982Z,26.87
2023-05-01T11:29:00.216Z,26.70
2023-05-01T11:33:59.444Z,26.12
2023-05-01T11:38:58.688Z,25.79
2023-05-01T11:43:58.968Z,25.83
2023-05-01T11:48:57.238Z,26.43
2023-05-01T11:53:55.534Z,26.28
2023-05-01T11:58:55.808Z,26.57
2023-05-01T12:03:56.196Z,26.52
2023-05-01T12:08:54.289Z,26.40
2023-05-01T12:13:54.567Z,26.50
2023-05-01T12:18:52.893Z,26.72
2023-05-01T12:23:53.090Z,26.94
2023-05-01T12:28:51.252Z,27.09
2023-05-01T12:33:50.405Z,27.31
2023-05-01T12:38:50.540Z,27.40
2023-05-01T12:43:48.876Z,27.27
2023-05-01T12:48:50.953Z,27.14
2023-05-01T12:53:47.320Z,27.03
2023-05-01T12:58:47.493Z,27.13
2023-05-01T13:03:45.669Z,27.10
2023-05-01T13:08:44.829Z,28.17
2023-05-01T13:13:43.989Z,27.75
2023-05-01T13:18:43.160Z,27.37
2023-05-01T13:23:44.308Z,27.24
2023-05-01T13:28:42.702Z,27.29
2023-05-01T13:33:39.844Z,27.46
2023-05-01T13:38:40.068Z,27.46
2023-05-01T13:43:40.220Z,27.24
2023-05-01T13:48:39.384Z,26.99
2023-05-01T13:53:37.529Z,26.45
2023-05-01T13:58:36.688Z,26.48
2023-05-01T14:03:37.037Z,26.65
2023-05-01T14:08:37.041Z,26.69
2023-05-01T14:13:34.177Z,26.52
2023-05-01T14:18:33.331Z,26.39
2023-05-01T14:23:32.471Z,27.00
2023-05-01T14:28:31.820Z,26.73
2023-05-01T14:33:30.970Z,25.90
2023-05-01T14:38:32.118Z,26.12
2023-05-01T14:43:30.453Z,25.14
2023-05-01T22:32:41.157Z,21.80
2023-05-01T22:37:39.413Z,22.65
2023-05-01T22:42:39.697Z,21.92
2023-05-01T22:47:39.009Z,19.87
2023-05-01T22:52:37.236Z,22.24
2023-05-01T22:57:37.495Z,24.31
2023-05-01T23:02:35.822Z,25.10
2023-05-01T23:07:36.061Z,25.58
2023-05-01T23:12:34.343Z,26.02
2023-05-01T23:17:33.647Z,25.54
2023-05-01T23:22:34.907Z,25.35
2023-05-01T23:27:34.167Z,25.24
2023-05-01T23:32:33.415Z,24.65
2023-05-01T23:37:30.655Z,24.20
2023-05-01T23:42:29.902Z,24.05
2023-05-01T23:47:29.196Z,23.69
2023-05-01T23:52:28.438Z,23.46
2023-05-01T23:57:27.703Z,23.19
